Time;durP1;ratioP1;P1;durP2;ratioP2;P2;SDS_P1;SDS_P2;PMS_P1;PMS_P2;Temp;Humidity;BMP_temperature;BMP_pressure;BME280_temperature;BME280_humidity;BME280_pressure;Samples;Min_cycle;Max_cycle;Signal;HPM_P1;HPM_P2
2021/11/29 00:02:22;;;;;;;17.40;5.42;;;;;;;13.00;100.00;99291.44;1713005;83;21087;-66
2021/11/29 00:04:49;;;;;;;13.75;5.12;;;;;;;13.01;100.00;99295.84;1713892;83;20996;-66
2021/11/29 00:07:17;;;;;;;17.55;5.65;;;;;;;13.04;100.00;99309.09;1713398;83;21485;-66
2021/11/29 00:09:46;;;;;;;13.78;5.28;;;;;;;13.02;100.00;99313.21;1712869;83;20980;-67
2021/11/29 00:12:14;;;;;;;14.45;5.22;;;;;;;13.05;100.00;99306.77;1702472;83;21074;-66
2021/11/29 00:14:41;;;;;;;14.07;5.47;;;;;;;13.07;100.00;99308.88;1705204;84;20955;-62
2021/11/29 00:17:09;;;;;;;17.23;5.20;;;;;;;13.09;100.00;99321.73;1704314;83;21087;-62
2021/11/29 00:19:36;;;;;;;18.95;5.20;;;;;;;13.09;100.00;99321.73;1704839;84;21052;-61
2021/11/29 00:22:05;;;;;;;14.15;5.28;;;;;;;13.14;100.00;99326.81;1695616;84;21110;-66
2021/11/29 00:24:31;;;;;;;12.73;5.30;;;;;;;13.14;100.00;99322.27;1694710;83;21131;-65
2021/11/29 00:27:00;;;;;;;15.13;5.42;;;;;;;13.17;100.00;99322.55;1703365;83;21553;-65
2021/11/29 00:29:27;;;;;;;16.95;6.15;;;;;;;13.20;100.00;99322.84;1705285;83;21040;-65
2021/11/29 00:31:53;;;;;;;13.78;5.25;;;;;;;13.24;100.00;99306.86;1704619;82;20985;-66
2021/11/29 00:34:21;;;;;;;15.95;5.17;;;;;;;13.24;100.00;99298.28;1706030;83;21095;-66
2021/11/29 00:36:51;;;;;;;21.57;6.35;;;;;;;13.26;100.00;99303.57;1699692;83;20992;-65
2021/11/29 00:39:17;;;;;;;13.43;5.00;;;;;;;13.30;100.00;99295.66;1702222;82;20987;-65
2021/11/29 00:41:44;;;;;;;17.35;5.20;;;;;;;13.28;100.00;99282.80;1714987;83;20900;-65
2021/11/29 00:44:11;;;;;;;18.23;4.92;;;;;;;13.22;100.00;99283.23;1715009;82;21031;-65
2021/11/29 00:46:40;;;;;;;14.00;4.72;;;;;;;13.18;100.00;99288.83;1714995;82;20996;-65
2021/11/29 00:49:07;;;;;;;12.70;5.05;;;;;;;13.18;100.00;99275.38;1714225;83;21468;-65
2021/11/29 00:51:34;;;;;;;16.97;5.28;;;;;;;13.18;100.00;99267.30;1705814;83;21074;-65
2021/11/29 00:54:01;;;;;;;11.68;5.20;;;;;;;13.16;100.00;99261.17;1685755;83;21117;-65
2021/11/29 00:56:28;;;;;;;16.25;5.53;;;;;;;13.11;100.00;99265.98;1708228;83;21100;-65
2021/11/29 00:58:55;;;;;;;15.50;5.22;;;;;;;13.10;100.00;99265.61;1686538;85;21520;-65
2021/11/29 01:01:22;;;;;;;16.25;5.03;;;;;;;13.14;100.00;99263.08;1680440;83;21126;-65
2021/11/29 01:03:49;;;;;;;17.67;5.20;;;;;;;13.16;100.00;99261.17;1704119;83;21063;-65
2021/11/29 01:06:16;;;;;;;16.05;4.33;;;;;;;13.14;100.00;99247.43;1710151;83;21131;-65
2021/11/29 01:08:43;;;;;;;17.27;4.62;;;;;;;13.12;100.00;99239.45;1706429;83;21501;-67
2021/11/29 01:11:10;;;;;;;15.78;4.10;;;;;;;13.12;100.00;99242.14;1701990;84;21047;-66
2021/11/29 01:13:39;;;;;;;14.90;4.90;;;;;;;13.15;100.00;99236.58;1702102;84;21208;-66
2021/11/29 01:16:06;;;;;;;13.32;3.90;;;;;;;13.16;100.00;99239.64;1709654;83;21050;-65
2021/11/29 01:18:34;;;;;;;12.90;4.25;;;;;;;13.16;100.00;99226.19;1713295;83;21066;-66
2021/11/29 01:21:02;;;;;;;14.68;3.87;;;;;;;13.16;100.00;99228.88;1707254;83;21449;-65
2021/11/29 01:23:29;;;;;;;11.78;3.62;;;;;;;13.14;100.00;99209.27;1713858;83;21080;-65
2021/11/29 01:25:56;;;;;;;13.28;3.30;;;;;;;13.16;100.00;99204.66;1704020;83;21222;-64
2021/11/29 01:28:23;;;;;;;13.90;3.58;;;;;;;13.18;100.00;99193.77;1697611;83;21464;-64
2021/11/29 01:30:50;;;;;;;15.72;3.40;;;;;;;13.17;100.00;99195.62;1701993;83;21064;-64
2021/11/29 01:33:19;;;;;;;12.90;2.90;;;;;;;13.17;100.00;99182.16;1701372;83;21098;-65
2021/11/29 01:35:49;;;;;;;14.18;3.77;;;;;;;13.18;100.00;99181.20;1704167;83;21460;-65
2021/11/29 01:38:15;;;;;;;11.83;2.95;;;;;;;13.17;100.00;99178.13;1707076;83;21098;-64
2021/11/29 01:40:44;;;;;;;12.10;3.08;;;;;;;13.17;100.00;99164.67;1708870;83;21299;-64
2021/11/29 01:43:13;;;;;;;9.68;2.50;;;;;;;13.16;100.00;99152.66;1707180;83;21511;-65
2021/11/29 01:45:47;;;;;;;15.75;2.90;;;;;;;13.12;100.00;99154.70;1710834;83;21064;-64
2021/11/29 01:48:14;;;;;;;13.98;3.37;;;;;;;13.13;100.00;99144.31;1713120;83;22150;-65
2021/11/29 01:50:44;;;;;;;11.25;2.95;;;;;;;13.12;100.00;99133.67;1709890;83;21469;-65
2021/11/29 01:53:11;;;;;;;11.80;2.90;;;;;;;13.08;100.00;99123.61;1701940;83;21062;-65
2021/11/29 01:55:40;;;;;;;20.25;3.47;;;;;;;13.04;100.00;99123.46;1703532;83;21087;-65
2021/11/29 01:58:07;;;;;;;12.18;3.20;;;;;;;13.02;100.00;99109.27;1713881;83;21083;-65
2021/11/29 02:00:39;;;;;;;15.08;3.40;;;;;;;13.03;100.00;99104.25;1713720;83;21036;-64
2021/11/29 02:03:06;;;;;;;11.78;2.83;;;;;;;13.02;100.00;99106.57;1713976;83;22303;-64
2021/11/29 02:05:33;;;;;;;10.78;3.08;;;;;;;13.02;100.00;99114.14;1704764;82;21114;-64
2021/11/29 02:08:00;;;;;;;15.65;3.33;;;;;;;13.07;100.00;99118.36;1713217;83;21079;-64
2021/11/29 02:10:28;;;;;;;15.78;3.02;;;;;;;13.09;100.00;99120.45;1710595;83;21725;-65
2021/11/29 02:12:55;;;;;;;15.40;3.00;;;;;;;13.09;100.00;99122.64;1701860;84;21028;-64
2021/11/29 02:15:22;;;;;;;23.45;4.12;;;;;;;13.12;100.00;99127.80;1701472;83;21124;-64
2021/11/29 02:17:49;;;;;;;17.82;3.10;;;;;;;13.12;100.00;99119.72;1713663;83;21021;-66
2021/11/29 02:20:16;;;;;;;13.32;3.05;;;;;;;13.14;100.00;99128.55;1713164;83;21080;-64
2021/11/29 02:22:44;;;;;;;15.05;3.10;;;;;;;13.18;100.00;99120.65;1713547;83;21396;-64
2021/11/29 02:25:18;;;;;;;17.57;3.12;;;;;;;13.22;100.00;99132.53;1712180;83;21054;-64
2021/11/29 02:27:47;;;;;;;13.15;3.10;;;;;;;13.24;100.00;99135.47;1702222;83;21531;-64
2021/11/29 02:30:14;;;;;;;14.28;3.33;;;;;;;13.27;100.00;99132.58;1701736;83;21086;-65
2021/11/29 02:32:41;;;;;;;13.53;3.02;;;;;;;13.29;100.00;99125.73;1708796;83;21000;-65
2021/11/29 02:35:08;;;;;;;25.27;3.42;;;;;;;13.27;100.00;99116.91;1710020;83;21036;-65
2021/11/29 02:37:36;;;;;;;14.93;3.00;;;;;;;13.27;100.00;99111.53;1713650;83;20924;-61
2021/11/29 02:40:05;;;;;;;12.95;3.15;;;;;;;13.25;100.00;99116.16;1706476;83;21125;-61
2021/11/29 02:42:33;;;;;;;16.25;3.20;;;;;;;13.21;100.00;99106.59;1711531;83;21008;-60
2021/11/29 02:45:01;;;;;;;15.28;3.85;;;;;;;13.14;100.00;99107.02;1712093;83;21103;-60
2021/11/29 02:47:28;;;;;;;15.80;3.17;;;;;;;13.09;100.00;99087.66;1703780;83;21083;-60
2021/11/29 02:49:55;;;;;;;16.02;3.62;;;;;;;13.04;100.00;99073.69;1705504;83;21111;-61
2021/11/29 02:52:22;;;;;;;15.10;3.02;;;;;;;13.04;100.00;99075.91;1708266;83;21109;-61
2021/11/29 02:54:48;;;;;;;16.77;4.05;;;;;;;13.08;100.00;99080.56;1704564;83;21838;-60
2021/11/29 02:57:18;;;;;;;15.53;3.90;;;;;;;13.12;100.00;99068.60;1708576;83;21059;-60
2021/11/29 02:59:45;;;;;;;14.33;3.35;;;;;;;13.14;100.00;99063.13;1706604;83;21083;-62
2021/11/29 03:02:16;;;;;;;16.27;3.17;;;;;;;13.20;100.00;99048.37;1700544;83;20974;-61
2021/11/29 03:04:43;;;;;;;14.70;3.50;;;;;;;13.24;100.00;99037.75;1705297;83;21620;-60
2021/11/29 03:07:10;;;;;;;18.55;4.03;;;;;;;13.26;100.00;99035.80;1704598;83;20982;-61
2021/11/29 03:09:38;;;;;;;16.60;3.55;;;;;;;13.31;100.00;99026.42;1706363;83;21064;-60
2021/11/29 03:12:06;;;;;;;16.17;3.62;;;;;;;13.38;99.80;99017.41;1697713;83;21575;-61
2021/11/29 03:14:33;;;;;;;15.45;3.52;;;;;;;13.40;99.35;99012.77;1690115;82;21075;-60
2021/11/29 03:17:01;;;;;;;20.00;3.50;;;;;;;13.42;99.03;99005.44;1690063;84;21229;-60
2021/11/29 03:19:34;;;;;;;14.35;4.00;;;;;;;13.43;98.84;98999.11;1715321;82;21066;-60
2021/11/29 03:22:02;;;;;;;9.68;2.77;;;;;;;13.44;98.61;99004.86;1715943;82;21053;-64
2021/11/29 03:24:29;;;;;;;20.97;4.08;;;;;;;13.48;98.41;99014.05;1715410;82;21112;-64
2021/11/29 03:26:56;;;;;;;22.90;3.72;;;;;;;13.51;98.15;99012.00;1716119;83;20943;-64
2021/11/29 03:29:24;;;;;;;15.03;3.33;;;;;;;13.53;97.80;99014.56;1715952;82;23136;-63
2021/11/29 03:31:52;;;;;;;20.27;3.83;;;;;;;13.53;97.49;99014.56;1716135;82;21009;-63
2021/11/29 03:34:21;;;;;;;21.23;4.10;;;;;;;13.53;97.38;99010.05;1716619;82;22154;-64
2021/11/29 03:36:48;;;;;;;15.13;3.33;;;;;;;13.53;97.24;98993.89;1707927;83;21481;-65
2021/11/29 03:39:22;;;;;;;17.02;3.72;;;;;;;13.54;97.17;98993.39;1690247;83;21126;-64
2021/11/29 03:41:50;;;;;;;15.78;3.45;;;;;;;13.55;97.02;98988.37;1705230;83;21110;-65
2021/11/29 03:44:17;;;;;;;19.02;3.77;;;;;;;13.56;96.98;98977.98;1703844;84;21738;-59
2021/11/29 03:46:46;;;;;;;22.93;4.53;;;;;;;13.56;96.88;98986.05;1702080;83;21020;-59
2021/11/29 03:49:12;;;;;;;20.85;3.95;;;;;;;13.57;96.71;98974.31;1698893;83;21586;-59
2021/11/29 03:51:40;;;;;;;20.57;4.25;;;;;;;13.55;96.76;98972.23;1703474;83;21112;-60
2021/11/29 03:54:07;;;;;;;17.85;4.10;;;;;;;13.54;96.78;98964.66;1695080;84;21164;-61
2021/11/29 03:56:33;;;;;;;24.12;4.05;;;;;;;13.53;96.71;98971.48;1697051;83;21111;-60
2021/11/29 03:59:00;;;;;;;21.45;4.05;;;;;;;13.50;96.83;98980.67;1700829;84;21581;-60
2021/11/29 04:01:27;;;;;;;20.37;4.58;;;;;;;13.44;96.87;98968.53;1705000;84;21060;-60
2021/11/29 04:03:54;;;;;;;21.75;4.30;;;;;;;13.36;97.14;98960.12;1705251;84;20925;-64
2021/11/29 04:06:22;;;;;;;16.93;3.90;;;;;;;13.33;97.46;98975.16;1697919;84;21540;-60
2021/11/29 04:08:51;;;;;;;25.05;4.33;;;;;;;13.33;97.73;98976.50;1698432;84;21465;-60
2021/11/29 04:11:20;;;;;;;17.62;4.28;;;;;;;13.31;97.86;98979.80;1700253;83;21103;-60
2021/11/29 04:13:47;;;;;;;16.60;3.77;;;;;;;13.28;97.99;98967.92;1698747;84;21508;-64
2021/11/29 04:16:15;;;;;;;15.08;3.62;;;;;;;13.30;98.21;98948.48;1704981;83;21095;-64
2021/11/29 04:18:44;;;;;;;19.05;3.87;;;;;;;13.31;98.19;98951.55;1707250;83;21484;-64
2021/11/29 04:21:12;;;;;;;17.80;3.95;;;;;;;13.33;98.10;98958.54;1704864;83;21020;-64
2021/11/29 04:23:39;;;;;;;18.45;4.15;;;;;;;13.32;98.13;98958.17;1685883;83;21043;-61
2021/11/29 04:26:06;;;;;;;22.77;4.05;;;;;;;13.33;98.18;98953.16;1697427;84;21485;-60
2021/11/29 04:28:34;;;;;;;19.57;4.33;;;;;;;13.35;98.16;98962.95;1698099;84;21119;-65
2021/11/29 04:31:01;;;;;;;19.90;3.95;;;;;;;13.38;98.10;98951.95;1697591;83;21142;-65
2021/11/29 04:33:28;;;;;;;21.70;4.17;;;;;;;13.38;97.94;98947.44;1693605;84;21516;-65
2021/11/29 04:35:55;;;;;;;16.30;4.30;;;;;;;13.39;98.00;98945.11;1688917;84;20917;-65
2021/11/29 04:38:22;;;;;;;19.17;4.50;;;;;;;13.39;97.84;98934.34;1688370;83;21112;-66
2021/11/29 04:40:49;;;;;;;23.02;4.72;;;;;;;13.39;97.88;98933.00;1697410;83;21071;-60
2021/11/29 04:43:16;;;;;;;19.30;5.28;;;;;;;13.40;97.93;98924.42;1697753;84;21099;-60
2021/11/29 04:45:44;;;;;;;14.45;3.70;;;;;;;13.42;97.84;98926.03;1698319;83;21018;-59
2021/11/29 04:48:10;;;;;;;18.25;4.05;;;;;;;13.42;97.72;98922.47;1692071;84;21049;-62
2021/11/29 04:50:37;;;;;;;25.27;4.25;;;;;;;13.39;97.68;98910.59;1694835;83;21518;-61
2021/11/29 04:53:05;;;;;;;25.15;5.17;;;;;;;13.36;97.87;98899.56;1693832;84;21084;-65
2021/11/29 04:55:31;;;;;;;19.60;3.90;;;;;;;13.37;98.17;98901.28;1694861;83;21139;-61
2021/11/29 04:57:59;;;;;;;25.52;4.50;;;;;;;13.39;98.24;98903.39;1698035;84;21381;-61
2021/11/29 05:00:25;;;;;;;18.37;4.25;;;;;;;13.39;98.14;98899.83;1697341;83;20989;-61
2021/11/29 05:02:53;;;;;;;23.85;5.83;;;;;;;13.38;98.35;98895.42;1697422;83;21084;-61
2021/11/29 05:05:20;;;;;;;23.25;4.83;;;;;;;13.38;98.77;98890.04;1696933;83;21537;-61
2021/11/29 05:07:47;;;;;;;19.00;4.30;;;;;;;13.42;98.95;98895.08;1694672;83;21140;-61
2021/11/29 05:10:14;;;;;;;23.70;4.47;;;;;;;13.45;98.97;98905.64;1688154;84;21493;-61
2021/11/29 05:12:40;;;;;;;24.52;4.90;;;;;;;13.48;99.04;98903.19;1702716;82;21107;-61
2021/11/29 05:15:09;;;;;;;30.25;4.67;;;;;;;13.51;99.12;98900.28;1710177;83;21144;-61
2021/11/29 05:17:38;;;;;;;30.32;5.15;;;;;;;13.55;99.09;98902.23;1705359;83;21450;-62
2021/11/29 05:20:06;;;;;;;29.52;4.55;;;;;;;13.60;99.09;98885.25;1708806;83;21481;-60
2021/11/29 05:22:34;;;;;;;22.65;4.75;;;;;;;13.61;98.71;98897.23;1709046;83;21513;-61
2021/11/29 05:25:02;;;;;;;21.87;5.35;;;;;;;13.62;98.84;98899.45;1710029;83;21024;-61
2021/11/29 05:27:29;;;;;;;28.90;5.62;;;;;;;13.61;98.90;98883.77;1699984;83;21067;-61
2021/11/29 05:29:56;;;;;;;19.90;4.97;;;;;;;13.63;99.04;98894.44;1700128;83;21121;-61
2021/11/29 05:32:24;;;;;;;21.35;4.83;;;;;;;13.66;99.14;98880.73;1709780;83;21858;-61
2021/11/29 05:34:52;;;;;;;21.82;5.33;;;;;;;13.73;99.04;98884.65;1710231;83;21590;-61
2021/11/29 05:37:19;;;;;;;21.33;4.95;;;;;;;13.79;98.80;98879.75;1710138;83;21564;-61
2021/11/29 05:39:46;;;;;;;25.65;5.05;;;;;;;13.80;98.56;98866.19;1707380;83;21382;-61
2021/11/29 05:42:13;;;;;;;25.25;5.15;;;;;;;13.82;98.37;98864.73;1698181;83;21493;-61
2021/11/29 05:44:40;;;;;;;30.80;5.95;;;;;;;13.85;98.11;98872.05;1698625;84;21139;-61
2021/11/29 05:47:07;;;;;;;22.65;5.97;;;;;;;13.87;97.79;98875.99;1699201;83;21609;-61
2021/11/29 05:49:34;;;;;;;20.52;5.05;;;;;;;13.85;97.76;98869.36;1693819;83;21039;-61
2021/11/29 05:52:01;;;;;;;27.00;5.97;;;;;;;13.91;97.72;98869.38;1708693;83;21521;-61
2021/11/29 05:54:28;;;;;;;20.62;5.15;;;;;;;13.96;97.47;98868.52;1710294;83;21067;-61
2021/11/29 05:56:55;;;;;;;18.80;4.97;;;;;;;13.99;96.99;98845.88;1708699;83;21143;-61
2021/11/29 05:59:22;;;;;;;23.90;4.80;;;;;;;13.97;96.78;98850.02;1710302;83;21066;-61
2021/11/29 06:01:49;;;;;;;20.77;5.37;;;;;;;14.00;96.77;98843.55;1711152;83;21028;-60
2021/11/29 06:04:16;;;;;;;25.68;5.03;;;;;;;14.04;96.66;98838.27;1708660;83;21111;-60
2021/11/29 06:06:44;;;;;;;23.57;4.65;;;;;;;14.10;96.20;98834.23;1710201;83;20988;-60
2021/11/29 06:09:10;;;;;;;22.25;5.30;;;;;;;14.13;95.89;98834.83;1703084;83;22088;-61
2021/11/29 06:11:38;;;;;;;20.48;4.78;;;;;;;14.16;95.50;98827.87;1709961;83;21083;-61
2021/11/29 06:14:05;;;;;;;23.45;5.22;;;;;;;14.18;95.09;98826.38;1698123;83;20985;-61
2021/11/29 06:16:33;;;;;;;26.20;4.80;;;;;;;14.18;94.88;98823.69;1695076;84;21019;-61
2021/11/29 06:19:01;;;;;;;24.35;5.25;;;;;;;14.22;94.76;98798.20;1717492;83;21004;-61
2021/11/29 06:21:27;;;;;;;20.52;4.60;;;;;;;14.26;94.11;98801.03;1718621;82;21132;-60
2021/11/29 06:23:54;;;;;;;26.07;5.28;;;;;;;14.25;93.90;98797.94;1666688;86;21007;-60
2021/11/29 06:26:22;;;;;;;21.27;4.75;;;;;;;14.26;93.69;98779.95;1695091;83;21307;-61
2021/11/29 06:28:49;;;;;;;22.15;5.08;;;;;;;14.28;93.66;98789.63;1688840;84;21025;-60
2021/11/29 06:31:16;;;;;;;23.45;5.75;;;;;;;14.32;93.39;98784.82;1702761;83;21604;-61
2021/11/29 06:33:43;;;;;;;25.05;5.17;;;;;;;14.34;93.03;98792.29;1684691;85;21501;-61
2021/11/29 06:36:10;;;;;;;24.55;5.67;;;;;;;14.37;92.79;98789.37;1686724;83;21603;-63
2021/11/29 06:38:37;;;;;;;22.27;4.90;;;;;;;14.39;92.56;98783.84;1698885;83;21103;-62
2021/11/29 06:41:04;;;;;;;27.13;6.10;;;;;;;14.43;92.44;98782.59;1703958;83;21787;-63
2021/11/29 06:43:31;;;;;;;25.32;5.42;;;;;;;14.51;92.23;98782.83;1704294;83;21112;-63
2021/11/29 06:45:58;;;;;;;26.02;5.17;;;;;;;14.56;91.88;98791.86;1703744;82;21914;-63
2021/11/29 06:48:25;;;;;;;23.65;4.60;;;;;;;14.64;91.43;98765.14;1698772;82;21103;-61
2021/11/29 06:50:53;;;;;;;20.65;5.08;;;;;;;14.68;90.71;98760.32;1703431;82;21015;-65
2021/11/29 06:53:23;;;;;;;22.77;5.60;;;;;;;14.73;90.38;98747.36;1700216;83;21072;-61
2021/11/29 06:55:50;;;;;;;20.00;5.15;;;;;;;14.76;89.95;98744.40;1684347;83;21076;-60
2021/11/29 06:58:18;;;;;;;25.55;5.22;;;;;;;14.79;89.56;98746.83;1694239;84;22073;-61
2021/11/29 07:00:45;;;;;;;30.55;5.42;;;;;;;14.81;89.39;98747.55;1688597;83;21025;-62
2021/11/29 07:03:14;;;;;;;19.42;5.10;;;;;;;14.86;89.05;98737.73;1689855;83;21060;-61
2021/11/29 07:05:42;;;;;;;19.05;5.47;;;;;;;14.86;88.63;98726.43;1701574;82;21149;-64
2021/11/29 07:08:09;;;;;;;22.30;5.05;;;;;;;14.88;88.38;98732.55;1698821;82;21064;-61
2021/11/29 07:10:40;;;;;;;19.98;5.12;;;;;;;14.92;88.10;98726.89;1699123;82;21165;-63
2021/11/29 07:13:04;;;;;;;27.00;6.25;;;;;;;14.93;87.79;98711.09;1718349;82;21083;-61
2021/11/29 07:15:33;;;;;;;18.30;4.70;;;;;;;14.94;87.63;98696.61;1718780;82;20928;-61
2021/11/29 07:18:00;;;;;;;23.60;5.65;;;;;;;14.94;87.60;98710.94;1716522;82;21109;-63
2021/11/29 07:20:27;;;;;;;21.12;5.45;;;;;;;14.99;87.34;98706.51;1689394;83;21025;-63
2021/11/29 07:22:54;;;;;;;32.00;5.67;;;;;;;15.00;86.82;98694.72;1692038;83;21151;-62
2021/11/29 07:25:21;;;;;;;26.45;6.03;;;;;;;15.01;86.71;98701.83;1697491;82;21043;-61
2021/11/29 07:27:48;;;;;;;23.38;6.22;;;;;;;15.04;86.32;98705.61;1695972;82;21064;-61
2021/11/29 07:30:18;;;;;;;33.65;6.58;;;;;;;15.05;86.10;98696.52;1695362;82;22243;-61
2021/11/29 07:32:45;;;;;;;28.83;5.55;;;;;;;15.03;85.81;98687.70;1699081;82;21450;-61
2021/11/29 07:35:13;;;;;;;34.55;6.70;;;;;;;14.95;86.24;98678.09;1699578;82;21562;-61
2021/11/29 07:37:41;;;;;;;25.48;4.97;;;;;;;14.85;87.25;98689.66;1700670;82;21018;-61
2021/11/29 07:40:10;;;;;;;38.10;6.22;;;;;;;14.78;88.63;98687.61;1703403;82;21095;-62
2021/11/29 07:42:36;;;;;;;35.03;5.90;;;;;;;14.64;90.16;98677.97;1695019;83;21184;-61
2021/11/29 07:45:05;;;;;;;32.83;6.03;;;;;;;14.47;91.68;98686.98;1695061;83;21099;-62
2021/11/29 07:47:33;;;;;;;25.40;5.92;;;;;;;14.36;92.97;98694.62;1694704;83;22320;-62
2021/11/29 07:50:00;;;;;;;31.87;7.00;;;;;;;14.31;93.57;98688.30;1688889;83;21060;-61
2021/11/29 07:52:27;;;;;;;30.43;5.28;;;;;;;14.30;93.98;98683.03;1706765;82;21067;-62
2021/11/29 07:54:54;;;;;;;31.95;6.22;;;;;;;14.29;94.03;98688.05;1708735;82;21055;-66
2021/11/29 07:57:20;;;;;;;30.90;6.37;;;;;;;14.26;93.94;98691.88;1709617;82;21066;-66
2021/11/29 07:59:47;;;;;;;26.02;5.85;;;;;;;14.21;94.03;98679.26;1679728;82;22303;-66
2021/11/29 08:02:15;;;;;;;33.25;6.80;;;;;;;14.23;94.44;98685.38;1686832;83;21072;-65
2021/11/29 08:04:42;;;;;;;26.15;6.70;;;;;;;14.25;94.46;98686.60;1692201;83;21758;-61
2021/11/29 08:07:09;;;;;;;27.75;6.45;;;;;;;14.28;94.40;98675.09;1686995;83;21132;-62
2021/11/29 08:09:36;;;;;;;28.20;6.67;;;;;;;14.30;94.42;98667.72;1687880;83;21138;-60
2021/11/29 08:12:04;;;;;;;24.55;7.47;;;;;;;14.32;94.25;98661.71;1700862;82;21141;-62
2021/11/29 08:14:31;;;;;;;36.08;7.30;;;;;;;14.35;93.97;98657.05;1699181;82;21151;-62
2021/11/29 08:16:58;;;;;;;24.92;5.92;;;;;;;14.39;94.03;98658.48;1696951;82;21080;-61
2021/11/29 08:19:25;;;;;;;28.00;6.03;;;;;;;14.45;94.04;98649.88;1693564;82;21090;-61
2021/11/29 08:21:52;;;;;;;26.23;6.53;;;;;;;14.52;93.73;98650.22;1698871;82;21518;-61
2021/11/29 08:24:19;;;;;;;29.12;6.62;;;;;;;14.51;93.22;98634.55;1699233;82;21576;-60
2021/11/29 08:26:46;;;;;;;28.05;7.17;;;;;;;14.54;93.17;98619.45;1692199;83;21126;-60
2021/11/29 08:29:13;;;;;;;26.40;6.30;;;;;;;14.61;92.79;98625.18;1711835;82;21078;-62
2021/11/29 08:31:40;;;;;;;36.98;6.70;;;;;;;14.64;92.36;98613.25;1707631;82;21066;-62
2021/11/29 08:34:08;;;;;;;33.88;6.67;;;;;;;14.67;92.10;151338.50;1709635;82;21099;-62
2021/11/29 08:36:36;;;;;;;32.55;6.45;;;;;;;14.72;91.92;151352.88;1682071;83;21943;-62
2021/11/29 08:39:03;;;;;;;24.75;6.50;;;;;;;14.80;91.53;151371.09;1686402;83;21116;-61
2021/11/29 08:41:32;;;;;;;26.93;7.75;;;;;;;14.84;91.07;151382.81;1686757;83;21050;-62
2021/11/29 08:44:03;;;;;;;33.48;8.08;;;;;;;14.88;90.71;151393.22;1691003;83;21076;-62
2021/11/29 08:46:31;;;;;;;22.95;5.90;;;;;;;14.93;90.38;151403.67;1689722;83;21123;-62
2021/11/29 08:49:00;;;;;;;24.35;5.92;;;;;;;14.96;90.08;151411.48;1689521;83;22326;-60
2021/11/29 08:51:26;;;;;;;26.10;6.50;;;;;;;15.00;89.60;151421.88;1695764;82;21605;-61
2021/11/29 08:53:53;;;;;;;30.77;6.22;;;;;;;15.01;89.26;151424.48;1693610;83;21571;-61
2021/11/29 08:56:21;;;;;;;28.60;6.53;;;;;;;15.02;88.95;151428.36;1700400;82;21137;-61
2021/11/29 08:58:48;;;;;;;22.25;6.72;;;;;;;15.08;88.89;151442.69;1719853;82;21165;-61
2021/11/29 09:01:15;;;;;;;30.95;7.45;;;;;;;15.14;88.30;151458.34;1709971;82;21131;-62
2021/11/29 09:03:42;;;;;;;31.68;7.70;;;;;;;15.19;88.16;151470.03;1709975;83;21112;-62
2021/11/29 09:06:10;;;;;;;30.37;7.87;;;;;;;15.24;87.79;151483.03;1689402;83;21043;-61
2021/11/29 09:08:38;;;;;;;30.62;7.15;;;;;;;15.26;87.20;151486.97;1703847;82;21074;-64
2021/11/29 09:11:05;;;;;;;25.62;6.92;;;;;;;15.24;86.99;151483.03;1727572;80;21023;-63
2021/11/29 09:13:32;;;;;;;27.98;7.75;;;;;;;15.25;87.01;151484.37;1682990;83;21819;-64
2021/11/29 09:16:00;;;;;;;22.32;6.22;;;;;;;15.28;86.73;151492.17;1697331;82;21159;-62
2021/11/29 09:18:28;;;;;;;26.90;6.58;;;;;;;15.28;86.44;151493.50;1699532;82;21134;-64
2021/11/29 09:20:55;;;;;;;30.72;7.30;;;;;;;15.28;86.38;151492.17;1688823;83;21063;-64
2021/11/29 09:23:22;;;;;;;25.20;7.65;;;;;;;15.31;86.43;151501.30;1686585;83;21052;-66
2021/11/29 09:25:51;;;;;;;28.60;7.42;;;;;;;15.37;86.36;151515.64;1696547;82;21155;-62
2021/11/29 09:28:19;;;;;;;31.60;8.05;;;;;;;15.47;86.40;151540.33;1699625;82;21094;-67
2021/11/29 09:30:51;;;;;;;31.52;8.33;;;;;;;15.59;85.91;151570.33;1691590;82;21063;-61
2021/11/29 09:33:21;;;;;;;29.00;7.10;;;;;;;15.68;85.31;151592.42;1668198;82;22227;-65
2021/11/29 09:35:49;;;;;;;27.50;7.87;;;;;;;15.76;85.17;151613.30;1689893;82;21132;-63
2021/11/29 09:38:15;;;;;;;26.50;7.12;;;;;;;15.88;84.67;151643.25;1710163;82;21071;-62
2021/11/29 09:40:44;;;;;;;33.95;7.62;;;;;;;15.98;84.14;151669.33;1715656;82;21119;-61
2021/11/29 09:43:13;;;;;;;30.62;8.13;;;;;;;16.09;83.61;151695.41;1715289;81;21099;-60
2021/11/29 09:45:41;;;;;;;32.50;8.33;;;;;;;16.22;83.00;151729.25;1717845;82;21131;-61
2021/11/29 09:48:09;;;;;;;32.38;7.97;;;;;;;16.39;82.32;151770.95;1712086;82;21127;-61
2021/11/29 09:50:42;;;;;;;36.38;7.45;;;;;;;16.51;81.61;151800.92;1712290;82;22379;-62
2021/11/29 09:53:10;;;;;;;24.20;6.95;;;;;;;16.59;81.02;151821.80;1677695;83;21154;-65
2021/11/29 09:55:37;;;;;;;28.75;7.42;;;;;;;16.68;80.50;151843.91;1715069;82;20868;-65
2021/11/29 09:58:05;;;;;;;27.10;7.17;;;;;;;16.78;79.97;151870.00;1688092;83;21104;-67
2021/11/29 10:00:44;;;;;;;42.58;9.03;;;;;;;16.87;79.07;151893.44;1687495;83;21733;-68
2021/11/29 10:03:12;;;;;;;32.73;7.55;;;;;;;16.92;78.80;151903.91;1691104;83;21087;-65
2021/11/29 10:05:39;;;;;;;28.38;8.10;;;;;;;16.97;78.29;151918.22;1686754;83;21682;-66
2021/11/29 10:08:38;;;;;;;30.75;8.53;;;;;;;17.00;78.09;151924.80;1708161;81;21450;-66
2021/11/29 10:11:11;;;;;;;30.23;7.58;;;;;;;17.00;77.52;151924.80;1686943;83;21568;-68
2021/11/29 10:13:55;;;;;;;30.97;7.25;;;;;;;16.88;77.48;151894.77;1719430;81;21069;-67
2021/11/29 10:16:45;;;;;;;39.03;8.15;;;;;;;16.85;77.76;151888.23;1699218;82;21199;-64
2021/11/29 10:19:27;;;;;;;25.97;7.83;;;;;;;16.82;77.56;151879.14;1697605;82;21265;-66
2021/11/29 10:21:54;;;;;;;41.02;8.38;;;;;;;16.74;77.58;151859.58;1693028;82;21524;-67
2021/11/29 10:24:22;;;;;;;35.28;7.65;;;;;;;16.69;77.34;151846.52;1643816;82;21729;-66
2021/11/29 10:26:51;;;;;;;35.98;8.53;;;;;;;16.59;77.50;151823.08;1693144;82;21110;-66
2021/11/29 10:29:18;;;;;;;40.28;8.10;;;;;;;16.54;77.85;151808.73;1692526;82;21106;-65
2021/11/29 10:31:51;;;;;;;29.02;7.40;;;;;;;16.46;78.47;151789.19;1698335;82;21062;-67
2021/11/29 10:34:27;;;;;;;32.17;6.65;;;;;;;16.38;79.45;151769.67;1696604;82;21161;-69
2021/11/29 10:37:01;;;;;;;28.27;7.03;;;;;;;16.25;80.02;151737.11;1700596;82;21093;-67
2021/11/29 10:39:35;;;;;;;32.63;8.23;;;;;;;16.11;80.78;151701.89;1694363;82;22105;-67
2021/11/29 10:42:06;;;;;;;34.73;8.47;;;;;;;16.04;81.73;151685.00;1695890;82;21620;-66
2021/11/29 10:44:39;;;;;;;33.30;7.35;;;;;;;15.96;82.83;151664.13;1697774;82;20865;-65
2021/11/29 10:47:10;;;;;;;36.83;7.53;;;;;;;15.85;84.32;151636.72;1699250;82;21540;-67
2021/11/29 10:49:44;;;;;;;29.50;7.83;;;;;;;15.76;85.39;151614.56;1699869;82;21129;-67
2021/11/29 10:52:12;;;;;;;31.48;7.33;;;;;;;15.74;86.18;151609.36;1698144;81;21017;-66
2021/11/29 10:54:40;;;;;;;34.33;7.67;;;;;;;15.75;86.76;151611.97;1696620;82;21095;-67
2021/11/29 10:57:14;;;;;;;35.78;8.20;;;;;;;15.79;87.06;151619.78;1696556;82;21106;-67
2021/11/29 10:59:43;;;;;;;30.88;7.65;;;;;;;15.81;87.16;151625.03;1700659;82;21113;-66
2021/11/29 11:02:16;;;;;;;33.78;7.70;;;;;;;15.79;87.17;151619.78;1700133;82;22198;-66
2021/11/29 11:05:10;;;;;;;31.25;8.28;;;;;;;15.78;87.48;151617.17;1705515;82;21575;-66
2021/11/29 11:07:39;;;;;;;33.75;8.70;;;;;;;15.75;87.76;151610.69;1703322;82;21138;-65
2021/11/29 11:10:11;;;;;;;32.17;8.53;;;;;;;15.76;87.97;151614.56;1701084;82;20881;-65
2021/11/29 11:12:40;;;;;;;32.20;7.15;;;;;;;15.78;88.17;151617.17;1700188;82;21141;-64
2021/11/29 11:15:10;;;;;;;30.65;8.10;;;;;;;15.81;88.40;151625.03;1685187;82;21078;-63
2021/11/29 11:17:39;;;;;;;29.70;7.33;;;;;;;15.86;88.47;151638.05;1672783;84;21076;-61
2021/11/29 11:20:14;;;;;;;33.50;7.53;;;;;;;15.89;88.35;151645.91;1671002;84;20900;-61
2021/11/29 11:22:46;;;;;;;31.65;7.72;;;;;;;15.93;88.35;151656.31;1667867;84;21000;-64
2021/11/29 11:25:18;;;;;;;37.85;8.55;;;;;;;15.96;88.31;151662.84;1641403;84;21755;-62
2021/11/29 11:27:58;;;;;;;37.40;8.75;;;;;;;16.01;88.41;151677.13;1665361;84;21076;-63